createdAt,value
2022-12-16T00:03:41.889Z,100393.91
2022-12-16T00:08:44.292Z,100383.13
2022-12-16T00:13:45.832Z,100393.66
2022-12-16T00:18:47.990Z,100395.72
2022-12-16T00:23:49.513Z,100385.84
2022-12-16T00:28:51.011Z,100381.91
2022-12-16T00:33:56.966Z,100387.13
2022-12-16T00:38:58.486Z,100388.47
2022-12-16T00:44:00.057Z,100387.41
2022-12-16T00:49:01.580Z,100394.31
2022-12-16T00:54:03.277Z,100387.91
2022-12-16T00:59:04.794Z,100380.06
2022-12-16T01:04:06.311Z,100388.72
2022-12-16T01:09:07.921Z,100381.59
2022-12-16T01:14:09.727Z,100382.00
2022-12-16T01:19:11.268Z,100382.72
2022-12-16T01:24:12.946Z,100400.22
2022-12-16T01:29:14.514Z,100395.47
2022-12-16T01:34:16.058Z,100407.91
2022-12-16T01:39:17.557Z,100403.66
2022-12-16T01:44:25.059Z,100407.31
2022-12-16T01:49:35.730Z,100414.16
2022-12-16T01:54:44.942Z,100409.94
2022-12-16T01:59:50.804Z,100423.53
2022-12-16T02:04:52.393Z,100422.81
2022-12-16T02:09:57.246Z,100425.41
2022-12-16T02:15:13.779Z,100420.94
2022-12-16T02:20:31.493Z,100425.19
2022-12-16T02:25:41.722Z,100430.97
2022-12-16T02:31:03.161Z,100427.44
2022-12-16T02:36:08.033Z,100431.25
2022-12-16T02:41:33.495Z,100432.34
2022-12-16T02:46:40.755Z,100432.06
2022-12-16T02:51:42.651Z,100449.63
2022-12-16T02:56:59.420Z,100440.25
2022-12-16T03:02:14.551Z,100438.44
2022-12-16T03:07:18.589Z,100446.56
2022-12-16T03:12:22.404Z,100439.13
2022-12-16T03:17:25.127Z,100442.94
2022-12-16T03:22:29.130Z,100439.13
2022-12-16T03:27:46.756Z,100435.41
2022-12-16T03:32:51.625Z,100440.91
2022-12-16T03:37:56.303Z,100446.88
2022-12-16T03:42:59.742Z,100446.09
2022-12-16T03:48:01.377Z,100450.56
2022-12-16T03:53:03.274Z,100449.50
2022-12-16T03:58:04.772Z,100458.63
2022-12-16T04:03:06.460Z,100457.75
2022-12-16T04:08:08.244Z,100447.91
2022-12-16T04:13:10.213Z,100458.44
2022-12-16T04:18:19.273Z,100457.22
2022-12-16T04:23:21.907Z,100455.94
2022-12-16T04:28:23.429Z,100457.00
2022-12-16T04:33:25.933Z,100463.53
2022-12-16T04:38:27.755Z,100469.34
2022-12-16T04:43:29.492Z,100469.88
2022-12-16T04:48:31.239Z,100482.09
2022-12-16T04:53:33.047Z,100482.69
2022-12-16T04:58:34.960Z,100500.66
2022-12-16T05:03:36.716Z,100493.81
2022-12-16T05:08:38.414Z,100502.00
2022-12-16T05:13:39.940Z,100502.25
2022-12-16T05:18:41.455Z,100516.88
2022-12-16T05:23:43.294Z,100521.28
2022-12-16T05:28:44.792Z,100518.13
2022-12-16T05:33:46.335Z,100522.84
2022-12-16T05:38:47.884Z,100532.53
2022-12-16T05:43:49.364Z,100536.56
2022-12-16T05:48:50.886Z,100544.00
2022-12-16T05:53:52.382Z,100555.97
2022-12-16T05:58:53.840Z,100563.28
2022-12-16T06:03:55.659Z,100558.47
2022-12-16T06:08:57.191Z,100560.59
2022-12-16T06:13:58.726Z,100578.84
2022-12-16T06:19:00.256Z,100589.47
2022-12-16T06:24:01.852Z,100597.97
2022-12-16T06:29:03.402Z,100590.94
2022-12-16T06:34:05.100Z,100600.50
2022-12-16T06:39:06.652Z,100606.28
2022-12-16T06:44:08.170Z,100621.41
2022-12-16T06:49:09.704Z,100632.72
2022-12-16T06:54:11.239Z,100639.94
2022-12-16T06:59:12.785Z,100645.72
2022-12-16T07:04:14.372Z,100655.28
2022-12-16T07:09:15.876Z,100659.53
2022-12-16T07:14:17.379Z,100669.41
2022-12-16T07:19:18.938Z,100674.31
2022-12-16T07:24:20.442Z,100692.63
2022-12-16T07:29:21.979Z,100707.63
2022-12-16T07:34:23.526Z,100710.88
2022-12-16T07:39:25.078Z,100719.22
2022-12-16T07:44:26.596Z,100729.13
2022-12-16T07:49:28.148Z,100741.41
2022-12-16T07:54:29.693Z,100754.00
2022-12-16T07:59:31.179Z,100762.06
2022-12-16T08:04:32.683Z,100762.22
2022-12-16T08:09:34.222Z,100763.34
2022-12-16T08:14:35.722Z,100767.28
2022-12-16T08:19:37.389Z,100769.91
2022-12-16T08:24:38.907Z,100785.94
2022-12-16T08:29:45.035Z,100779.88
2022-12-16T08:34:46.973Z,100775.88
2022-12-16T08:39:54.838Z,100785.19
2022-12-16T08:45:10.260Z,100788.59
2022-12-16T08:50:14.558Z,100795.81
2022-12-16T08:55:16.168Z,100798.00
2022-12-16T09:00:17.917Z,100801.06
2022-12-16T09:05:19.547Z,100799.19
2022-12-16T09:10:21.043Z,100813.59
2022-12-16T09:15:22.624Z,100815.25
2022-12-16T09:20:24.173Z,100833.84
2022-12-16T09:25:25.751Z,100841.06
2022-12-16T09:30:27.514Z,100842.22
2022-12-16T09:35:29.665Z,100851.28
2022-12-16T09:40:31.357Z,100855.53
2022-12-16T09:45:51.295Z,100861.81
2022-12-16T09:50:55.820Z,100856.56
2022-12-16T09:55:58.005Z,100865.66
2022-12-16T10:00:59.967Z,100878.69
2022-12-16T10:06:17.114Z,100877.75
2022-12-16T10:11:49.021Z,100874.38
2022-12-16T10:17:04.887Z,100883.28
2022-12-16T10:22:32.256Z,100888.53
2022-12-16T10:27:48.066Z,100893.00
2022-12-16T10:32:50.718Z,100904.38
2022-12-16T10:37:52.703Z,100899.66
2022-12-16T10:43:27.898Z,100903.72
2022-12-16T10:48:31.300Z,100896.19
2022-12-16T10:53:34.726Z,100894.50
2022-12-16T10:58:55.663Z,100894.28
2022-12-16T11:03:57.255Z,100895.25
2022-12-16T11:09:34.496Z,100902.66
2022-12-16T11:14:36.032Z,100899.44
2022-12-16T11:19:37.547Z,100897.41
2022-12-16T11:24:39.074Z,100907.06
2022-12-16T11:30:05.466Z,100908.41
2022-12-16T11:35:15.360Z,100913.94
2022-12-16T11:40:18.521Z,100912.56
2022-12-16T11:45:20.989Z,100921.38
2022-12-16T11:50:25.459Z,100914.00
2022-12-16T11:56:02.936Z,100921.50
2022-12-16T12:01:16.974Z,100919.59
2022-12-16T12:06:18.447Z,100929.53
2022-12-16T12:11:31.755Z,100917.41
2022-12-16T12:16:45.567Z,100914.19
2022-12-16T12:21:55.923Z,100916.34
2022-12-16T12:27:30.673Z,100930.28
2022-12-16T12:32:54.065Z,100935.59
2022-12-16T12:38:12.007Z,100922.09
2022-12-16T12:43:44.379Z,100929.47
2022-12-16T12:49:18.265Z,100934.06
2022-12-16T12:54:44.902Z,100943.50
2022-12-16T13:00:15.129Z,100946.28
2022-12-16T13:05:22.507Z,100945.84
2022-12-16T13:10:25.799Z,100952.78
2022-12-16T13:15:40.166Z,100943.84
2022-12-16T13:20:42.063Z,100953.72
2022-12-16T13:25:53.274Z,100946.44
2022-12-16T13:31:03.048Z,100952.91
2022-12-16T13:36:05.291Z,100960.38
2022-12-16T13:41:26.740Z,100967.63
2022-12-16T13:46:40.275Z,100969.72
2022-12-16T13:51:41.744Z,100973.56
2022-12-16T13:56:48.795Z,100973.97
2022-12-16T14:01:54.653Z,100992.63
2022-12-16T14:07:01.092Z,100993.41
2022-12-16T14:12:12.551Z,100991.09
2022-12-16T14:17:26.372Z,101004.41
2022-12-16T14:22:41.403Z,101016.22
2022-12-16T14:27:43.248Z,101024.31
2022-12-16T14:32:45.791Z,101025.81
2022-12-16T14:37:47.294Z,101023.34
2022-12-16T14:42:52.689Z,101039.09
2022-12-16T14:47:55.286Z,101037.63
2022-12-16T14:53:14.250Z,101047.09
2022-12-16T14:58:24.464Z,101060.94
2022-12-16T15:03:45.633Z,101052.84
2022-12-16T15:08:58.597Z,101061.06
2022-12-16T15:14:03.922Z,101061.22
2022-12-16T15:19:06.757Z,101071.44
2022-12-16T15:24:10.322Z,101078.25
2022-12-16T15:29:41.365Z,101093.84
2022-12-16T15:34:49.035Z,101103.31
2022-12-16T15:39:54.666Z,101113.22
2022-12-16T15:44:56.344Z,101121.09
2022-12-16T15:50:03.539Z,101127.00
2022-12-16T15:55:24.050Z,101129.28
2022-12-16T16:00:31.450Z,101143.50
2022-12-16T16:05:35.765Z,101150.13
2022-12-16T16:10:37.493Z,101161.84
2022-12-16T16:15:39.122Z,101168.50
2022-12-16T16:20:40.837Z,101172.16
2022-12-16T16:25:42.394Z,101184.34
2022-12-16T16:30:43.936Z,101190.03
2022-12-16T16:35:45.815Z,101193.63
2022-12-16T16:40:47.390Z,101201.22
2022-12-16T16:45:54.085Z,101208.94
2022-12-16T16:50:56.094Z,101212.91
2022-12-16T16:55:57.835Z,101228.34
2022-12-16T17:00:59.456Z,101237.81
2022-12-16T17:06:01.035Z,101240.47
2022-12-16T17:11:02.587Z,101241.75
2022-12-16T17:16:04.429Z,101246.06
2022-12-16T17:21:06.118Z,101239.44
2022-12-16T17:26:10.045Z,101250.47
2022-12-16T17:31:11.705Z,101248.28
2022-12-16T17:36:15.546Z,101253.78
2022-12-16T17:41:17.081Z,101265.28
2022-12-16T17:46:18.665Z,101277.97
2022-12-16T17:51:20.321Z,101289.72
2022-12-16T17:56:21.831Z,101299.34
2022-12-16T18:01:24.146Z,101303.22
2022-12-16T18:06:29.146Z,101315.16
2022-12-16T18:11:33.536Z,101327.91
2022-12-16T18:16:38.824Z,101333.97
2022-12-16T18:21:40.389Z,101319.56
2022-12-16T18:26:42.272Z,101334.84
2022-12-16T18:31:43.924Z,101330.31
2022-12-16T18:36:45.511Z,101344.66
2022-12-16T18:41:47.395Z,101352.28
2022-12-16T18:46:49.161Z,101347.78
2022-12-16T18:51:50.654Z,101344.94
2022-12-16T18:56:52.241Z,101352.84
2022-12-16T19:01:53.953Z,101347.41
2022-12-16T19:06:55.619Z,101341.88
2022-12-16T19:11:57.208Z,101353.69
2022-12-16T19:16:58.819Z,101366.06
2022-12-16T19:22:00.399Z,101371.06
2022-12-16T19:27:01.924Z,101369.28
